sensor_id;sensor_type;location;lat;lon;timestamp;pressure;altitude;pressure_sealevel;temperature;humidity
3142;BME280;1581;51.568;6.998;2023-02-18T00:01:58;101495.00;;;11.27;100.00
3142;BME280;1581;51.568;6.998;2023-02-18T00:04:26;101490.88;;;11.16;100.00
3142;BME280;1581;51.568;6.998;2023-02-18T00:06:54;101485.84;;;11.21;100.00
3142;BME280;1581;51.568;6.998;2023-02-18T00:09:22;101497.22;;;11.15;100.00
3142;BME280;1581;51.568;6.998;2023-02-18T00:11:51;101498.66;;;11.26;100.00
3142;BME280;1581;51.568;6.998;2023-02-18T00:14:19;101497.38;;;11.22;100.00
3142;BME280;1581;51.568;6.998;2023-02-18T00:16:47;101494.16;;;11.26;100.00
3142;BME280;1581;51.568;6.998;2023-02-18T00:19:18;101487.41;;;11.38;100.00
3142;BME280;1581;51.568;6.998;2023-02-18T00:21:46;101494.41;;;11.39;100.00
3142;BME280;1581;51.568;6.998;2023-02-18T00:24:15;101489.13;;;11.31;100.00
3142;BME280;1581;51.568;6.998;2023-02-18T00:26:43;101477.50;;;11.24;100.00
3142;BME280;1581;51.568;6.998;2023-02-18T00:29:13;101481.34;;;11.22;100.00
3142;BME280;1581;51.568;6.998;2023-02-18T00:31:41;101469.97;;;11.28;100.00
3142;BME280;1581;51.568;6.998;2023-02-18T00:34:10;101462.38;;;11.39;100.00
3142;BME280;1581;51.568;6.998;2023-02-18T00:36:38;101466.91;;;11.39;100.00
3142;BME280;1581;51.568;6.998;2023-02-18T00:39:08;101471.16;;;11.25;100.00
3142;BME280;1581;51.568;6.998;2023-02-18T00:41:36;101470.91;;;11.35;100.00
3142;BME280;1581;51.568;6.998;2023-02-18T00:44:05;101462.75;;;11.36;100.00
3142;BME280;1581;51.568;6.998;2023-02-18T00:46:35;101467.03;;;11.45;100.00
3142;BME280;1581;51.568;6.998;2023-02-18T00:49:03;101455.66;;;11.51;100.00
3142;BME280;1581;51.568;6.998;2023-02-18T00:51:32;101457.84;;;11.48;100.00
3142;BME280;1581;51.568;6.998;2023-02-18T00:54:00;101441.78;;;11.56;100.00
3142;BME280;1581;51.568;6.998;2023-02-18T00:56:28;101434.47;;;11.50;100.00
3142;BME280;1581;51.568;6.998;2023-02-18T00:58:55;101450.25;;;11.37;100.00
3142;BME280;1581;51.568;6.998;2023-02-18T01:01:23;101442.47;;;11.27;100.00
3142;BME280;1581;51.568;6.998;2023-02-18T01:03:54;101439.28;;;11.32;100.00
3142;BME280;1581;51.568;6.998;2023-02-18T01:06:23;101435.88;;;11.38;100.00
3142;BME280;1581;51.568;6.998;2023-02-18T01:08:54;101434.97;;;11.23;100.00
3142;BME280;1581;51.568;6.998;2023-02-18T01:11:23;101446.91;;;11.35;100.00
3142;BME280;1581;51.568;6.998;2023-02-18T01:13:51;101440.09;;;11.32;100.00
3142;BME280;1581;51.568;6.998;2023-02-18T01:16:19;101436.03;;;11.44;100.00
3142;BME280;1581;51.568;6.998;2023-02-18T01:18:47;101436.56;;;11.40;100.00
3142;BME280;1581;51.568;6.998;2023-02-18T01:21:16;101439.69;;;11.21;100.00
3142;BME280;1581;51.568;6.998;2023-02-18T01:23:44;101429.56;;;11.39;100.00
3142;BME280;1581;51.568;6.998;2023-02-18T01:26:12;101433.47;;;11.51;100.00
3142;BME280;1581;51.568;6.998;2023-02-18T01:28:40;101436.56;;;11.40;100.00
3142;BME280;1581;51.568;6.998;2023-02-18T01:31:12;101431.81;;;11.27;100.00
3142;BME280;1581;51.568;6.998;2023-02-18T01:33:40;101417.53;;;11.13;100.00
3142;BME280;1581;51.568;6.998;2023-02-18T01:36:09;101422.28;;;11.25;100.00
3142;BME280;1581;51.568;6.998;2023-02-18T01:38:39;101417.44;;;11.28;100.00
3142;BME280;1581;51.568;6.998;2023-02-18T01:41:07;101421.00;;;11.43;100.00
3142;BME280;1581;51.568;6.998;2023-02-18T01:43:35;101421.50;;;11.69;100.00
3142;BME280;1581;51.568;6.998;2023-02-18T01:46:16;101422.81;;;11.43;100.00
3142;BME280;1581;51.568;6.998;2023-02-18T01:48:50;101416.13;;;11.24;100.00
3142;BME280;1581;51.568;6.998;2023-02-18T01:51:21;101416.63;;;11.28;100.00
3142;BME280;1581;51.568;6.998;2023-02-18T01:53:55;101415.53;;;11.14;100.00
3142;BME280;1581;51.568;6.998;2023-02-18T01:56:30;101405.03;;;11.13;100.00
3142;BME280;1581;51.568;6.998;2023-02-18T01:59:05;101406.41;;;11.09;100.00
3142;BME280;1581;51.568;6.998;2023-02-18T02:01:34;101407.41;;;11.30;100.00
3142;BME280;1581;51.568;6.998;2023-02-18T02:04:02;101403.72;;;11.09;100.00
3142;BME280;1581;51.568;6.998;2023-02-18T02:06:30;101407.59;;;11.07;100.00
3142;BME280;1581;51.568;6.998;2023-02-18T02:09:03;101409.84;;;11.17;100.00
3142;BME280;1581;51.568;6.998;2023-02-18T02:12:19;101402.72;;;11.10;100.00
3142;BME280;1581;51.568;6.998;2023-02-18T02:15:15;101407.81;;;11.19;100.00
3142;BME280;1581;51.568;6.998;2023-02-18T02:18:10;101389.00;;;11.21;100.00
3142;BME280;1581;51.568;6.998;2023-02-18T02:21:47;101380.50;;;11.17;100.00
3142;BME280;1581;51.568;6.998;2023-02-18T02:24:54;101382.69;;;11.14;100.00
3142;BME280;1581;51.568;6.998;2023-02-18T02:27:33;101383.22;;;11.10;100.00
3142;BME280;1581;51.568;6.998;2023-02-18T02:36:40;101379.16;;;10.91;100.00
3142;BME280;1581;51.568;6.998;2023-02-18T02:39:17;101369.72;;;11.11;100.00
3142;BME280;1581;51.568;6.998;2023-02-18T02:41:55;101370.13;;;11.22;100.00
3142;BME280;1581;51.568;6.998;2023-02-18T02:44:35;101362.59;;;11.26;100.00
3142;BME280;1581;51.568;6.998;2023-02-18T02:47:10;101367.34;;;11.16;100.00
3142;BME280;1581;51.568;6.998;2023-02-18T02:49:47;101365.69;;;11.37;100.00
3142;BME280;1581;51.568;6.998;2023-02-18T02:52:25;101352.25;;;11.23;100.00
3142;BME280;1581;51.568;6.998;2023-02-18T02:54:56;101355.78;;;11.23;100.00
3142;BME280;1581;51.568;6.998;2023-02-18T02:57:47;101348.97;;;11.21;100.00
3142;BME280;1581;51.568;6.998;2023-02-18T03:00:20;101344.56;;;11.28;100.00
3142;BME280;1581;51.568;6.998;2023-02-18T03:03:13;101340.00;;;11.14;100.00
3142;BME280;1581;51.568;6.998;2023-02-18T03:06:08;101332.66;;;11.16;100.00
3142;BME280;1581;51.568;6.998;2023-02-18T03:08:46;101322.00;;;10.94;100.00
3142;BME280;1581;51.568;6.998;2023-02-18T03:11:18;101310.66;;;10.92;100.00
3142;BME280;1581;51.568;6.998;2023-02-18T03:13:59;101309.72;;;11.07;100.00
3142;BME280;1581;51.568;6.998;2023-02-18T03:16:35;101302.72;;;11.06;100.00
3142;BME280;1581;51.568;6.998;2023-02-18T03:19:12;101303.13;;;10.95;100.00
3142;BME280;1581;51.568;6.998;2023-02-18T03:21:47;101296.53;;;10.83;100.00
3142;BME280;1581;51.568;6.998;2023-02-18T03:24:24;101289.25;;;10.77;100.00
3142;BME280;1581;51.568;6.998;2023-02-18T03:26:58;101281.53;;;10.90;100.00
3142;BME280;1581;51.568;6.998;2023-02-18T03:29:28;101280.78;;;10.96;100.00
3142;BME280;1581;51.568;6.998;2023-02-18T03:32:02;101292.47;;;10.95;100.00
3142;BME280;1581;51.568;6.998;2023-02-18T03:34:35;101284.06;;;11.06;100.00
3142;BME280;1581;51.568;6.998;2023-02-18T03:37:05;101282.56;;;11.26;100.00
3142;BME280;1581;51.568;6.998;2023-02-18T03:39:38;101284.78;;;11.00;100.00
3142;BME280;1581;51.568;6.998;2023-02-18T03:42:08;101281.53;;;10.90;100.00
3142;BME280;1581;51.568;6.998;2023-02-18T03:44:35;101275.81;;;10.93;100.00
3142;BME280;1581;51.568;6.998;2023-02-18T03:47:03;101276.88;;;10.84;100.00
3142;BME280;1581;51.568;6.998;2023-02-18T03:49:31;101271.00;;;10.89;100.00
3142;BME280;1581;51.568;6.998;2023-02-18T03:51:58;101264.41;;;10.85;100.00
3142;BME280;1581;51.568;6.998;2023-02-18T03:54:26;101271.66;;;10.91;100.00
3142;BME280;1581;51.568;6.998;2023-02-18T03:56:55;101258.81;;;10.94;100.00
3142;BME280;1581;51.568;6.998;2023-02-18T03:59:23;101264.25;;;11.01;100.00
3142;BME280;1581;51.568;6.998;2023-02-18T04:01:51;101256.56;;;11.06;100.00
3142;BME280;1581;51.568;6.998;2023-02-18T04:04:19;101265.69;;;11.11;100.00
3142;BME280;1581;51.568;6.998;2023-02-18T04:06:46;101255.59;;;10.99;100.00
3142;BME280;1581;51.568;6.998;2023-02-18T04:09:14;101255.53;;;10.84;100.00
3142;BME280;1581;51.568;6.998;2023-02-18T04:11:45;101251.47;;;10.96;100.00
3142;BME280;1581;51.568;6.998;2023-02-18T04:14:14;101244.19;;;10.90;100.00
3142;BME280;1581;51.568;6.998;2023-02-18T04:16:42;101242.69;;;11.10;100.00
3142;BME280;1581;51.568;6.998;2023-02-18T04:19:10;101234.69;;;11.10;100.00
3142;BME280;1581;51.568;6.998;2023-02-18T04:21:38;101226.38;;;11.05;100.00
3142;BME280;1581;51.568;6.998;2023-02-18T04:24:06;101219.81;;;10.93;100.00
3142;BME280;1581;51.568;6.998;2023-02-18T04:26:33;101227.13;;;10.99;100.00
3142;BME280;1581;51.568;6.998;2023-02-18T04:29:01;101222.56;;;11.08;100.00
3142;BME280;1581;51.568;6.998;2023-02-18T04:31:30;101216.72;;;11.04;100.00
3142;BME280;1581;51.568;6.998;2023-02-18T04:33:58;101214.59;;;11.00;100.00
3142;BME280;1581;51.568;6.998;2023-02-18T04:36:26;101212.13;;;10.98;100.00
3142;BME280;1581;51.568;6.998;2023-02-18T04:38:54;101203.88;;;11.08;100.00
3142;BME280;1581;51.568;6.998;2023-02-18T04:41:22;101205.84;;;10.91;100.00
3142;BME280;1581;51.568;6.998;2023-02-18T04:43:50;101208.06;;;10.88;100.00
3142;BME280;1581;51.568;6.998;2023-02-18T04:46:18;101204.13;;;10.98;100.00
3142;BME280;1581;51.568;6.998;2023-02-18T04:48:47;101199.56;;;10.84;100.00
3142;BME280;1581;51.568;6.998;2023-02-18T04:51:14;101200.88;;;10.88;100.00
3142;BME280;1581;51.568;6.998;2023-02-18T04:53:42;101192.56;;;10.83;100.00
3142;BME280;1581;51.568;6.998;2023-02-18T04:56:10;101193.88;;;10.87;100.00
3142;BME280;1581;51.568;6.998;2023-02-18T04:58:40;101188.00;;;10.92;100.00
3142;BME280;1581;51.568;6.998;2023-02-18T05:01:08;101183.69;;;10.91;100.00
3142;BME280;1581;51.568;6.998;2023-02-18T05:03:35;101179.44;;;10.82;100.00
3142;BME280;1581;51.568;6.998;2023-02-18T05:06:05;101184.34;;;10.93;100.00
3142;BME280;1581;51.568;6.998;2023-02-18T05:08:33;101184.28;;;10.78;100.00
3142;BME280;1581;51.568;6.998;2023-02-18T05:11:05;101173.78;;;10.99;100.00
3142;BME280;1581;51.568;6.998;2023-02-18T05:13:33;101177.56;;;11.05;100.00
3142;BME280;1581;51.568;6.998;2023-02-18T05:16:01;101172.56;;;10.87;100.00
3142;BME280;1581;51.568;6.998;2023-02-18T05:18:29;101170.88;;;10.86;100.00
3142;BME280;1581;51.568;6.998;2023-02-18T05:20:58;101170.44;;;10.83;100.00
3142;BME280;1581;51.568;6.998;2023-02-18T05:23:27;101163.53;;;10.88;100.00
3142;BME280;1581;51.568;6.998;2023-02-18T05:25:55;101162.25;;;10.84;100.00
3142;BME280;1581;51.568;6.998;2023-02-18T05:28:23;101157.06;;;10.68;100.00
3142;BME280;1581;51.568;6.998;2023-02-18T05:30:51;101155.41;;;10.67;100.00
3142;BME280;1581;51.568;6.998;2023-02-18T05:33:20;101156.72;;;10.71;100.00
3142;BME280;1581;51.568;6.998;2023-02-18T05:35:49;101156.72;;;10.71;100.00
3142;BME280;1581;51.568;6.998;2023-02-18T05:38:19;101143.53;;;10.70;100.00
3142;BME280;1581;51.568;6.998;2023-02-18T05:40:50;101134.41;;;10.64;100.00
3142;BME280;1581;51.568;6.998;2023-02-18T05:43:18;101124.28;;;10.82;100.00
3142;BME280;1581;51.568;6.998;2023-02-18T05:45:45;101112.97;;;10.80;100.00
3142;BME280;1581;51.568;6.998;2023-02-18T05:48:13;101115.75;;;10.64;100.00
3142;BME280;1581;51.568;6.998;2023-02-18T05:50:41;101128.19;;;10.72;100.00
3142;BME280;1581;51.568;6.998;2023-02-18T05:53:08;101108.25;;;10.68;100.00
3142;BME280;1581;51.568;6.998;2023-02-18T05:55:36;101104.22;;;10.72;100.00
3142;BME280;1581;51.568;6.998;2023-02-18T05:58:06;101112.50;;;10.77;100.00
3142;BME280;1581;51.568;6.998;2023-02-18T06:00:35;101114.78;;;10.80;100.00
3142;BME280;1581;51.568;6.998;2023-02-18T06:03:04;101106.41;;;10.68;100.00
3142;BME280;1581;51.568;6.998;2023-02-18T06:05:31;101100.06;;;10.69;100.00
3142;BME280;1581;51.568;6.998;2023-02-18T06:07:59;101106.09;;;10.63;100.00
3142;BME280;1581;51.568;6.998;2023-02-18T06:10:27;101104.50;;;10.77;100.00
3142;BME280;1581;51.568;6.998;2023-02-18T06:12:55;101105.31;;;10.63;100.00
3142;BME280;1581;51.568;6.998;2023-02-18T06:15:25;101099.19;;;10.77;100.00
3142;BME280;1581;51.568;6.998;2023-02-18T06:17:53;101094.94;;;10.68;100.00
3142;BME280;1581;51.568;6.998;2023-02-18T06:20:21;101104.31;;;10.78;100.00
3142;BME280;1581;51.568;6.998;2023-02-18T06:22:49;101094.41;;;10.72;100.00
3142;BME280;1581;51.568;6.998;2023-02-18T06:25:16;101114.06;;;10.71;100.00
3142;BME280;1581;51.568;6.998;2023-02-18T06:27:44;101092.19;;;10.76;100.00
3142;BME280;1581;51.568;6.998;2023-02-18T06:30:12;101091.69;;;10.58;100.00
3142;BME280;1581;51.568;6.998;2023-02-18T06:32:41;101099.97;;;10.63;100.00
3142;BME280;1581;51.568;6.998;2023-02-18T06:35:09;101102.94;;;10.68;100.00
3142;BME280;1581;51.568;6.998;2023-02-18T06:37:37;101097.78;;;10.81;100.00
3142;BME280;1581;51.568;6.998;2023-02-18T06:40:07;101105.31;;;10.63;100.00
3142;BME280;1581;51.568;6.998;2023-02-18T06:42:35;101101.34;;;10.73;100.00
3142;BME280;1581;51.568;6.998;2023-02-18T06:45:03;101124.25;;;10.68;100.00
3142;BME280;1581;51.568;6.998;2023-02-18T06:47:32;101102.00;;;10.75;100.00
3142;BME280;1581;51.568;6.998;2023-02-18T06:50:06;101102.13;;;10.82;100.00
3142;BME280;1581;51.568;6.998;2023-02-18T06:52:34;101111.44;;;11.00;100.00
3142;BME280;1581;51.568;6.998;2023-02-18T06:55:04;101103.84;;;10.75;100.00
3142;BME280;1581;51.568;6.998;2023-02-18T06:57:32;101102.75;;;10.69;100.00
3142;BME280;1581;51.568;6.998;2023-02-18T07:00:00;101098.06;;;10.71;100.00
3142;BME280;1581;51.568;6.998;2023-02-18T07:02:28;101086.97;;;10.82;100.00
3142;BME280;1581;51.568;6.998;2023-02-18T07:04:56;101085.78;;;10.85;100.00
3142;BME280;1581;51.568;6.998;2023-02-18T07:07:25;101088.34;;;10.93;100.00
3142;BME280;1581;51.568;6.998;2023-02-18T07:09:52;101087.72;;;11.05;100.00
3142;BME280;1581;51.568;6.998;2023-02-18T07:12:20;101101.88;;;11.06;100.00
3142;BME280;1581;51.568;6.998;2023-02-18T07:14:48;101094.66;;;10.77;100.00
3142;BME280;1581;51.568;6.998;2023-02-18T07:17:15;101098.25;;;10.84;100.00
3142;BME280;1581;51.568;6.998;2023-02-18T07:19:43;101104.59;;;10.83;100.00
3142;BME280;1581;51.568;6.998;2023-02-18T07:22:11;101101.97;;;10.98;100.00
3142;BME280;1581;51.568;6.998;2023-02-18T07:24:40;101095.22;;;10.73;100.00
3142;BME280;1581;51.568;6.998;2023-02-18T07:27:08;101106.41;;;10.68;100.00
3142;BME280;1581;51.568;6.998;2023-02-18T07:29:36;101112.59;;;10.83;100.00
3142;BME280;1581;51.568;6.998;2023-02-18T07:32:06;101113.53;;;10.90;100.00
3142;BME280;1581;51.568;6.998;2023-02-18T07:34:34;101104.50;;;10.77;100.00
3142;BME280;1581;51.568;6.998;2023-02-18T07:37:02;101112.66;;;10.75;100.00
3142;BME280;1581;51.568;6.998;2023-02-18T07:39:34;101112.88;;;10.74;100.00
3142;BME280;1581;51.568;6.998;2023-02-18T07:42:04;101117.00;;;10.76;100.00
3142;BME280;1581;51.568;6.998;2023-02-18T07:44:32;101116.13;;;10.98;100.00
3142;BME280;1581;51.568;6.998;2023-02-18T07:47:00;101106.00;;;10.94;100.00
3142;BME280;1581;51.568;6.998;2023-02-18T07:49:28;101121.25;;;10.85;100.00
3142;BME280;1581;51.568;6.998;2023-02-18T07:51:56;101109.66;;;10.78;100.00
3142;BME280;1581;51.568;6.998;2023-02-18T07:54:24;101122.88;;;10.72;100.00
3142;BME280;1581;51.568;6.998;2023-02-18T07:56:52;101114.47;;;10.97;100.00
3142;BME280;1581;51.568;6.998;2023-02-18T07:59:22;101110.22;;;10.88;100.00
3142;BME280;1581;51.568;6.998;2023-02-18T08:01:50;101129.16;;;10.93;100.00
3142;BME280;1581;51.568;6.998;2023-02-18T08:04:18;101124.56;;;10.87;100.00
3142;BME280;1581;51.568;6.998;2023-02-18T08:06:47;101128.59;;;10.83;100.00
3142;BME280;1581;51.568;6.998;2023-02-18T08:09:16;101133.47;;;10.94;100.00
3142;BME280;1581;51.568;6.998;2023-02-18T08:11:44;101136.66;;;11.12;100.00
3142;BME280;1581;51.568;6.998;2023-02-18T08:14:12;101138.03;;;11.08;100.00
3142;BME280;1581;51.568;6.998;2023-02-18T08:16:47;101124.94;;;11.13;100.00
3142;BME280;1581;51.568;6.998;2023-02-18T08:19:19;101122.38;;;11.34;100.00
3142;BME280;1581;51.568;6.998;2023-02-18T08:21:53;101127.72;;;11.19;100.00
3142;BME280;1581;51.568;6.998;2023-02-18T08:24:35;101122.47;;;10.97;100.00
3142;BME280;1581;51.568;6.998;2023-02-18T08:27:06;101114.25;;;10.84;100.00
3142;BME280;1581;51.568;6.998;2023-02-18T08:29:36;101113.88;;;10.73;100.00
3142;BME280;1581;51.568;6.998;2023-02-18T08:32:08;101127.72;;;11.05;100.00
3142;BME280;1581;51.568;6.998;2023-02-18T08:34:39;101126.69;;;11.06;100.00
3142;BME280;1581;51.568;6.998;2023-02-18T08:37:13;101127.06;;;11.03;100.00
3142;BME280;1581;51.568;6.998;2023-02-18T08:39:43;101130.34;;;10.91;100.00
3142;BME280;1581;51.568;6.998;2023-02-18T08:42:14;101120.06;;;10.88;100.00
3142;BME280;1581;51.568;6.998;2023-02-18T08:44:42;101116.94;;;10.99;100.00
3142;BME280;1581;51.568;6.998;2023-02-18T08:47:11;101121.38;;;11.06;100.00
3142;BME280;1581;51.568;6.998;2023-02-18T08:49:39;101136.00;;;10.96;100.00
3142;BME280;1581;51.568;6.998;2023-02-18T08:52:07;101138.19;;;10.92;100.00
3142;BME280;1581;51.568;6.998;2023-02-18T08:54:34;101128.34;;;10.93;100.00
3142;BME280;1581;51.568;6.998;2023-02-18T08:57:02;101127.13;;;10.81;100.00
3142;BME280;1581;51.568;6.998;2023-02-18T08:59:30;101113.78;;;10.81;100.00
3142;BME280;1581;51.568;6.998;2023-02-18T09:01:58;101132.34;;;10.74;100.00
3142;BME280;1581;51.568;6.998;2023-02-18T09:04:27;101131.34;;;10.75;100.00
3142;BME280;1581;51.568;6.998;2023-02-18T09:06:55;101129.63;;;10.82;100.00
3142;BME280;1581;51.568;6.998;2023-02-18T09:09:23;101121.53;;;10.53;100.00
3142;BME280;1581;51.568;6.998;2023-02-18T09:11:51;101112.53;;;10.54;100.00
3142;BME280;1581;51.568;6.998;2023-02-18T09:14:18;101134.25;;;10.43;100.00
3142;BME280;1581;51.568;6.998;2023-02-18T09:16:49;101130.91;;;10.86;100.00
3142;BME280;1581;51.568;6.998;2023-02-18T09:19:17;101123.25;;;10.46;100.00
3142;BME280;1581;51.568;6.998;2023-02-18T09:22:16;101135.22;;;10.50;100.00
3142;BME280;1581;51.568;6.998;2023-02-18T09:24:53;101138.31;;;10.76;100.00
3142;BME280;1581;51.568;6.998;2023-02-18T09:27:21;101139.91;;;10.85;100.00
3142;BME280;1581;51.568;6.998;2023-02-18T09:29:51;101140.06;;;10.69;100.00
3142;BME280;1581;51.568;6.998;2023-02-18T09:32:23;101139.16;;;10.77;100.00
3142;BME280;1581;51.568;6.998;2023-02-18T09:34:51;101151.97;;;10.36;100.00
3142;BME280;1581;51.568;6.998;2023-02-18T09:37:20;101134.69;;;10.32;100.00
3142;BME280;1581;51.568;6.998;2023-02-18T09:39:48;101139.91;;;10.26;100.00
3142;BME280;1581;51.568;6.998;2023-02-18T09:42:19;101126.63;;;10.40;100.00
3142;BME280;1581;51.568;6.998;2023-02-18T09:44:54;101136.47;;;10.62;100.00
3142;BME280;1581;51.568;6.998;2023-02-18T09:47:32;101136.16;;;10.57;100.00
3142;BME280;1581;51.568;6.998;2023-02-18T09:50:07;101146.03;;;10.71;100.00
3142;BME280;1581;51.568;6.998;2023-02-18T09:52:39;101123.84;;;10.56;100.00
3142;BME280;1581;51.568;6.998;2023-02-18T09:55:19;101128.81;;;10.96;100.00
3142;BME280;1581;51.568;6.998;2023-02-18T09:57:50;101116.66;;;10.79;100.00
3142;BME280;1581;51.568;6.998;2023-02-18T10:00:24;101110.22;;;10.88;100.00
3142;BME280;1581;51.568;6.998;2023-02-18T10:02:56;101105.91;;;10.87;100.00
3142;BME280;1581;51.568;6.998;2023-02-18T10:05:27;101112.59;;;10.83;100.00
3142;BME280;1581;51.568;6.998;2023-02-18T10:08:01;101109.13;;;11.12;100.00
3142;BME280;1581;51.568;6.998;2023-02-18T10:10:38;101108.09;;;10.84;100.00
3142;BME280;1581;51.568;6.998;2023-02-18T10:13:15;101128.88;;;10.88;100.00
3142;BME280;1581;51.568;6.998;2023-02-18T10:15:44;101135.50;;;10.78;100.00
3142;BME280;1581;51.568;6.998;2023-02-18T10:18:29;101135.34;;;10.94;100.00
3142;BME280;1581;51.568;6.998;2023-02-18T10:21:04;101138.06;;;10.71;100.00
3142;BME280;1581;51.568;6.998;2023-02-18T10:23:37;101129.53;;;10.90;100.00
3142;BME280;1581;51.568;6.998;2023-02-18T10:26:11;101138.91;;;11.01;100.00
3142;BME280;1581;51.568;6.998;2023-02-18T10:28:41;101140.88;;;11.07;100.00
3142;BME280;1581;51.568;6.998;2023-02-18T10:31:16;101138.47;;;10.97;100.00
3142;BME280;1581;51.568;6.998;2023-02-18T10:33:49;101131.19;;;10.91;100.00
3142;BME280;1581;51.568;6.998;2023-02-18T10:36:25;101141.78;;;10.62;100.00
3142;BME280;1581;51.568;6.998;2023-02-18T10:39:18;101149.06;;;10.68;100.00
3142;BME280;1581;51.568;6.998;2023-02-18T10:41:56;101157.06;;;10.68;100.00
3142;BME280;1581;51.568;6.998;2023-02-18T10:44:36;101155.03;;;10.70;100.00
3142;BME280;1581;51.568;6.998;2023-02-18T10:47:19;101148.16;;;10.53;100.00
3142;BME280;1581;51.568;6.998;2023-02-18T10:49:58;101151.22;;;10.50;100.00
3142;BME280;1581;51.568;6.998;2023-02-18T10:52:33;101167.06;;;10.44;100.00
3142;BME280;1581;51.568;6.998;2023-02-18T10:55:07;101174.06;;;10.45;100.00
3142;BME280;1581;51.568;6.998;2023-02-18T10:57:47;101171.94;;;10.40;100.00
3142;BME280;1581;51.568;6.998;2023-02-18T11:00:19;101163.94;;;10.40;100.00
3142;BME280;1581;51.568;6.998;2023-02-18T11:03:12;101163.47;;;10.37;100.00
3142;BME280;1581;51.568;6.998;2023-02-18T11:05:43;101165.22;;;10.22;100.00
3142;BME280;1581;51.568;6.998;2023-02-18T11:08:19;101181.13;;;10.38;100.00
3142;BME280;1581;51.568;6.998;2023-02-18T11:10:50;101185.00;;;10.50;100.00
3142;BME280;1581;51.568;6.998;2023-02-18T11:13:26;101192.78;;;10.59;100.00
3142;BME280;1581;51.568;6.998;2023-02-18T11:15:59;101171.63;;;10.80;100.00
3142;BME280;1581;51.568;6.998;2023-02-18T11:18:37;101175.28;;;10.79;100.00
3142;BME280;1581;51.568;6.998;2023-02-18T11:21:25;101166.06;;;10.45;100.00
3142;BME280;1581;51.568;6.998;2023-02-18T11:23:56;101171.72;;;10.64;100.00
3142;BME280;1581;51.568;6.998;2023-02-18T11:26:33;101171.31;;;10.75;100.00
3142;BME280;1581;51.568;6.998;2023-02-18T11:29:06;101171.44;;;10.59;100.00
3142;BME280;1581;51.568;6.998;2023-02-18T11:31:42;101176.84;;;10.51;100.00
3142;BME280;1581;51.568;6.998;2023-02-18T11:34:17;101169.97;;;10.34;100.00
3142;BME280;1581;51.568;6.998;2023-02-18T11:36:48;101193.19;;;10.71;100.00
3142;BME280;1581;51.568;6.998;2023-02-18T11:39:20;101169.22;;;10.85;100.00
3142;BME280;1581;51.568;6.998;2023-02-18T11:41:56;101166.38;;;10.72;100.00
3142;BME280;1581;51.568;6.998;2023-02-18T11:44:28;101169.97;;;10.57;100.00
3142;BME280;1581;51.568;6.998;2023-02-18T11:47:04;101172.59;;;10.42;100.00
3142;BME280;1581;51.568;6.998;2023-02-18T11:49:34;101169.22;;;10.48;100.00
3142;BME280;1581;51.568;6.998;2023-02-18T11:52:17;101170.84;;;10.72;100.00
3142;BME280;1581;51.568;6.998;2023-02-18T11:55:00;101185.78;;;10.58;100.00
3142;BME280;1581;51.568;6.998;2023-02-18T11:57:33;101173.88;;;10.46;100.00
3142;BME280;1581;51.568;6.998;2023-02-18T12:00:03;101168.72;;;10.45;100.00
3142;BME280;1581;51.568;6.998;2023-02-18T12:02:42;101166.00;;;10.53;100.00
3142;BME280;1581;51.568;6.998;2023-02-18T12:05:15;101174.81;;;10.76;100.00
3142;BME280;1581;51.568;6.998;2023-02-18T12:07:48;101179.53;;;10.88;100.00
3142;BME280;1581;51.568;6.998;2023-02-18T12:10:24;101183.59;;;10.62;100.00
3142;BME280;1581;51.568;6.998;2023-02-18T12:13:00;101167.72;;;10.46;100.00
3142;BME280;1581;51.568;6.998;2023-02-18T12:15:52;101177.84;;;10.50;100.00
3142;BME280;1581;51.568;6.998;2023-02-18T12:19:02;101173.91;;;10.83;100.00
3142;BME280;1581;51.568;6.998;2023-02-18T12:21:48;101169.25;;;11.00;100.00
3142;BME280;1581;51.568;6.998;2023-02-18T12:24:40;101154.97;;;10.78;100.00
3142;BME280;1581;51.568;6.998;2023-02-18T12:27:19;101167.13;;;10.58;100.00
3142;BME280;1581;51.568;6.998;2023-02-18T12:30:26;101172.91;;;10.84;100.00
3142;BME280;1581;51.568;6.998;2023-02-18T12:33:07;101162.03;;;10.71;100.00
3142;BME280;1581;51.568;6.998;2023-02-18T12:35:51;101169.38;;;10.69;100.00
3142;BME280;1581;51.568;6.998;2023-02-18T12:38:58;101153.84;;;10.73;100.00
3142;BME280;1581;51.568;6.998;2023-02-18T12:44:42;101153.63;;;10.60;100.00
3142;BME280;1581;51.568;6.998;2023-02-18T12:47:35;101158.09;;;10.82;100.00
3142;BME280;1581;51.568;6.998;2023-02-18T12:53:56;101152.88;;;10.88;100.00
3142;BME280;1581;51.568;6.998;2023-02-18T12:56:58;101153.66;;;10.74;100.00
3142;BME280;1581;51.568;6.998;2023-02-18T12:59:54;101156.38;;;11.03;100.00
3142;BME280;1581;51.568;6.998;2023-02-18T13:03:06;101153.81;;;10.95;100.00
3142;BME280;1581;51.568;6.998;2023-02-18T13:05:42;101143.34;;;10.94;100.00
3142;BME280;1581;51.568;6.998;2023-02-18T13:08:37;101144.16;;;10.94;100.00
3142;BME280;1581;51.568;6.998;2023-02-18T13:11:22;101149.34;;;10.73;100.00
3142;BME280;1581;51.568;6.998;2023-02-18T13:13:59;101149.09;;;10.83;100.00
3142;BME280;1581;51.568;6.998;2023-02-18T13:16:31;101141.59;;;11.01;100.00
3142;BME280;1581;51.568;6.998;2023-02-18T13:19:12;101148.34;;;10.74;100.00
3142;BME280;1581;51.568;6.998;2023-02-18T13:21:42;101148.78;;;11.00;100.00
3142;BME280;1581;51.568;6.998;2023-02-18T13:24:16;101152.50;;;10.77;100.00
3142;BME280;1581;51.568;6.998;2023-02-18T13:26:49;101146.22;;;11.07;100.00
3142;BME280;1581;51.568;6.998;2023-02-18T13:29:27;101164.78;;;11.00;100.00
3142;BME280;1581;51.568;6.998;2023-02-18T13:32:06;101155.94;;;11.14;100.00
3142;BME280;1581;51.568;6.998;2023-02-18T13:34:47;101146.28;;;11.13;100.00
3142;BME280;1581;51.568;6.998;2023-02-18T13:37:25;101144.81;;;10.96;100.00
3142;BME280;1581;51.568;6.998;2023-02-18T13:39:56;101148.09;;;10.84;100.00
3142;BME280;1581;51.568;6.998;2023-02-18T13:42:34;101151.69;;;10.91;100.00
3142;BME280;1581;51.568;6.998;2023-02-18T13:45:30;101153.09;;;11.01;100.00